Weott, CA (95571)

11:05 PM PDT on April 27, 2017 (GMT -0700)
MERCC1 | | Change Station

Elev 656 ft 40.14 °N, 123.82 °W | Updated 57 minutes ago

Clear
Clear
50.0 °F
Feels Like 49 °F
N
4.0
Wind Variable Wind from South
Gusts 12.0 mph

Today
High -- | Low -- °F
--% Chance of Precip.
Yesterday
High -- | Low -- °F
Precip. -- in
Pressure 30.22 in
Visibility 10.0 miles
Clouds Scattered Clouds 1900 ft
Overcast 2500 ft
Windchill 49 °F
Dew Point 40 °F
Humidity 69%
Rainfall 0.00 in
Snow Depth Not available.
6:19 AM 8:07 PM
Waxing Crescent, 5% visible
METAR KFOT 280555Z AUTO 32007KT 10SM SCT019 OVC025 09/07 A3022 RMK AO1
Pressure 30.22 in
Visibility 10.0 miles
Clouds Scattered Clouds 1900 ft
Overcast 2500 ft
Windchill 49 °F
Dew Point 40 °F
Humidity 69%
Rainfall 0.00 in
Snow Depth Not available.
6:19 AM 8:07 PM
Waxing Crescent, 5% visible
METAR KFOT 280555Z AUTO 32007KT 10SM SCT019 OVC025 09/07 A3022 RMK AO1

Get Severe Weather Alerts

Thanks for signing up!

Be on the lookout for a verification email in your inbox.

You'll start receiving the daily forecast at 8 AM.

×

10-Day Weather Forecast

Almanac

Astronomy

Apr. 27, 2017 Rise Set
Actual Time
Civil Twilight
Nautical Twilight
Astronomical Twilight
Moon
Length of Visible Light
Length of Day
Tomorrow will be .
, % of the Moon is Illuminated

Today's Extremes

State Highs State Lows

Community

WunderPhotos

WunderBlog® & News

Nearby

Air Quality

  Air Quality AQ Index Pollutant
Not available.

Snow Depth

Station Depth Elevation

Earthquake Activity

City Distance Mag. Time & Date
Minimum magnitude displayed is 2.5.

Coastal Water Temperatures

Place Temperature

Stations

Nearby Weather Stations

Station Location Temp. Windchill Dew Point Humidity Wind Precip. Elev Updated Type
                   

Watches & Warnings

There are currently no watches in effect.